createdAt,value
2022-11-12T00:01:14.230Z,10.90
2022-11-12T00:03:42.409Z,10.90
2022-11-12T00:06:10.560Z,11.00
2022-11-12T00:08:38.704Z,10.90
2022-11-12T00:11:07.363Z,10.90
2022-11-12T00:13:35.484Z,10.90
2022-11-12T00:16:05.764Z,10.90
2022-11-12T00:18:35.262Z,10.80
2022-11-12T00:21:03.379Z,10.80
2022-11-12T00:23:31.477Z,10.90
2022-11-12T00:26:00.832Z,10.90
2022-11-12T00:28:33.283Z,10.80
2022-11-12T00:31:09.866Z,10.90
2022-11-12T00:33:42.669Z,10.80
2022-11-12T00:36:11.658Z,10.80
2022-11-12T00:38:39.771Z,10.80
2022-11-12T00:41:08.084Z,10.80
2022-11-12T00:43:36.244Z,10.80
2022-11-12T00:46:04.412Z,10.80
2022-11-12T00:48:32.604Z,10.80
2022-11-12T00:51:03.846Z,10.80
2022-11-12T00:53:32.391Z,10.80
2022-11-12T00:56:06.696Z,10.80
2022-11-12T00:58:36.928Z,10.80
2022-11-12T01:01:10.004Z,10.80
2022-11-12T01:03:39.419Z,10.80
2022-11-12T01:06:11.543Z,10.80
2022-11-12T01:08:40.231Z,10.80
2022-11-12T01:11:09.992Z,10.80
2022-11-12T01:13:42.959Z,10.70
2022-11-12T01:16:15.526Z,10.70
2022-11-12T01:18:44.454Z,10.70
2022-11-12T01:21:14.883Z,10.70
2022-11-12T01:23:43.755Z,10.70
2022-11-12T01:26:13.698Z,10.70
2022-11-12T01:28:42.941Z,10.60
2022-11-12T01:31:12.743Z,10.60
2022-11-12T01:33:41.164Z,10.70
2022-11-12T01:36:10.228Z,10.70
2022-11-12T01:38:42.111Z,10.70
2022-11-12T01:41:12.775Z,10.70
2022-11-12T01:43:40.977Z,10.70
2022-11-12T01:46:16.152Z,10.70
2022-11-12T01:48:51.059Z,10.70
2022-11-12T01:51:21.809Z,10.70
2022-11-12T01:53:54.848Z,10.60
2022-11-12T01:56:24.571Z,10.60
2022-11-12T01:58:57.178Z,10.70
2022-11-12T02:01:25.473Z,10.70
2022-11-12T02:03:53.681Z,10.70
2022-11-12T02:06:22.351Z,10.70
2022-11-12T02:08:52.528Z,10.70
2022-11-12T02:11:22.946Z,10.70
2022-11-12T02:13:58.164Z,10.70
2022-11-12T02:16:28.120Z,10.70
2022-11-12T02:18:56.285Z,10.70
2022-11-12T02:21:26.712Z,10.70
2022-11-12T02:24:02.483Z,10.70
2022-11-12T02:26:34.049Z,10.70
2022-11-12T02:29:02.676Z,10.70
2022-11-12T02:31:31.188Z,10.70
2022-11-12T02:33:59.315Z,10.70
2022-11-12T02:36:29.089Z,10.70
2022-11-12T02:38:57.541Z,10.70
2022-11-12T02:41:26.293Z,10.70
2022-11-12T02:43:54.476Z,10.70
2022-11-12T02:46:22.949Z,10.70
2022-11-12T02:48:51.055Z,10.70
2022-11-12T02:51:19.144Z,10.70
2022-11-12T02:53:48.624Z,10.70
2022-11-12T02:56:16.720Z,10.70
2022-11-12T02:58:44.884Z,10.70
2022-11-12T03:01:13.034Z,10.70
2022-11-12T03:03:41.232Z,10.70
2022-11-12T03:06:09.621Z,10.70
2022-11-12T03:08:37.736Z,10.70
2022-11-12T03:11:11.603Z,10.70
2022-11-12T03:13:40.455Z,10.70
2022-11-12T03:16:09.248Z,10.70
2022-11-12T03:18:37.728Z,10.70
2022-11-12T03:21:06.131Z,10.60
2022-11-12T03:23:34.323Z,10.60
2022-11-12T03:26:05.088Z,10.70
2022-11-12T03:28:34.580Z,10.70
2022-11-12T03:31:02.918Z,10.70
2022-11-12T03:33:31.101Z,10.70
2022-11-12T03:35:59.219Z,10.70
2022-11-12T03:38:27.597Z,10.70
2022-11-12T03:40:55.947Z,10.70
2022-11-12T03:43:24.047Z,10.70
2022-11-12T03:45:53.516Z,10.80
2022-11-12T03:48:21.707Z,10.80
2022-11-12T03:50:49.913Z,10.70
2022-11-12T03:53:18.079Z,10.70
2022-11-12T03:55:46.395Z,10.70
2022-11-12T03:58:14.802Z,10.70
2022-11-12T04:00:43.213Z,10.70
2022-11-12T04:03:12.771Z,10.70
2022-11-12T04:05:58.350Z,10.70
2022-11-12T04:08:38.413Z,10.70
2022-11-12T04:11:09.447Z,10.70
2022-11-12T04:13:38.620Z,10.80
2022-11-12T04:16:27.120Z,10.70
2022-11-12T04:19:15.966Z,10.70
2022-11-12T04:21:52.402Z,10.70
2022-11-12T04:24:40.790Z,10.70
2022-11-12T04:27:11.059Z,10.70
2022-11-12T04:29:56.667Z,10.80
2022-11-12T04:32:25.520Z,10.70
2022-11-12T04:34:55.236Z,10.70
2022-11-12T04:37:24.695Z,10.70
2022-11-12T04:39:53.138Z,10.70
2022-11-12T04:42:38.639Z,10.70
2022-11-12T04:45:08.992Z,10.70
2022-11-12T04:47:38.927Z,10.70
2022-11-12T04:50:14.554Z,10.70
2022-11-12T04:52:42.773Z,10.70
2022-11-12T04:55:11.918Z,10.70
2022-11-12T04:57:40.395Z,10.70
2022-11-12T05:00:09.832Z,10.70
2022-11-12T05:02:37.950Z,10.70
2022-11-12T05:05:06.723Z,10.70
2022-11-12T05:07:36.253Z,10.70
2022-11-12T05:10:04.593Z,10.60
2022-11-12T05:12:32.694Z,10.60
2022-11-12T05:15:00.901Z,10.60
2022-11-12T05:17:29.074Z,10.60
2022-11-12T05:19:57.206Z,10.70
2022-11-12T05:22:42.766Z,10.70
2022-11-12T05:25:13.786Z,10.70
2022-11-12T05:27:42.034Z,10.70
2022-11-12T05:30:11.626Z,10.70
2022-11-12T05:32:39.733Z,10.70
2022-11-12T05:35:08.484Z,10.70
2022-11-12T05:37:36.602Z,10.70
2022-11-12T05:40:05.445Z,10.60
2022-11-12T05:42:34.922Z,10.60
2022-11-12T05:45:03.026Z,10.60
2022-11-12T05:47:31.137Z,10.60
2022-11-12T05:49:59.285Z,10.60
2022-11-12T05:52:27.486Z,10.60
2022-11-12T05:54:55.587Z,10.60
2022-11-12T05:57:23.716Z,10.60
2022-11-12T05:59:53.210Z,10.60
2022-11-12T06:02:21.402Z,10.60
2022-11-12T06:04:49.629Z,10.60
2022-11-12T06:07:17.797Z,10.60
2022-11-12T06:09:45.969Z,10.70
2022-11-12T06:12:14.073Z,10.70
2022-11-12T06:14:42.193Z,10.70
2022-11-12T06:17:11.673Z,10.70
2022-11-12T06:19:39.804Z,10.70
2022-11-12T06:22:07.936Z,10.70
2022-11-12T06:24:36.055Z,10.70
2022-11-12T06:27:04.218Z,10.70
2022-11-12T06:29:32.390Z,10.70
2022-11-12T06:32:00.493Z,10.70
2022-11-12T06:34:29.951Z,10.80
2022-11-12T06:36:58.143Z,10.80
2022-11-12T06:39:26.255Z,10.80
2022-11-12T06:41:54.942Z,10.80
2022-11-12T06:44:23.140Z,10.80
2022-11-12T06:46:51.422Z,10.80
2022-11-12T06:49:19.571Z,10.90
2022-11-12T06:51:51.972Z,10.80
2022-11-12T06:54:20.178Z,10.80
2022-11-12T06:56:48.265Z,10.80
2022-11-12T06:59:16.422Z,10.80
2022-11-12T07:01:44.571Z,10.80
2022-11-12T07:04:12.760Z,10.80
2022-11-12T07:06:40.926Z,10.80
2022-11-12T07:09:11.924Z,10.80
2022-11-12T07:11:40.040Z,10.80
2022-11-12T07:14:08.335Z,10.80
2022-11-12T07:16:36.730Z,10.80
2022-11-12T07:19:05.016Z,10.80
2022-11-12T07:21:33.175Z,10.80
2022-11-12T07:24:01.300Z,10.90
2022-11-12T07:26:30.819Z,10.90
2022-11-12T07:28:58.952Z,10.90
2022-11-12T07:31:27.062Z,10.90
2022-11-12T07:33:55.183Z,10.90
2022-11-12T07:36:23.573Z,10.90
2022-11-12T07:38:54.229Z,10.90
2022-11-12T07:41:24.087Z,10.90
2022-11-12T07:43:54.807Z,10.90
2022-11-12T07:46:24.838Z,10.90
2022-11-12T07:48:53.537Z,11.00
2022-11-12T07:51:23.321Z,11.00
2022-11-12T07:53:58.883Z,11.00
2022-11-12T07:56:28.507Z,11.00
2022-11-12T07:58:58.069Z,11.10
2022-11-12T08:01:31.481Z,11.10
2022-11-12T08:03:59.800Z,11.10
2022-11-12T08:06:28.414Z,11.10
2022-11-12T08:08:57.333Z,11.10
2022-11-12T08:11:25.623Z,11.10
2022-11-12T08:13:53.830Z,11.10
2022-11-12T08:16:23.341Z,11.10
2022-11-12T08:18:51.800Z,11.20
2022-11-12T08:21:20.784Z,11.20
2022-11-12T08:23:48.917Z,11.20
2022-11-12T08:26:19.572Z,11.20
2022-11-12T08:28:47.946Z,11.30
2022-11-12T08:31:19.067Z,11.30
2022-11-12T08:33:48.642Z,11.30
2022-11-12T08:36:18.458Z,11.30
2022-11-12T08:38:46.781Z,11.30
2022-11-12T08:41:17.667Z,11.30
2022-11-12T08:43:45.809Z,11.40
2022-11-12T08:46:13.970Z,11.30
2022-11-12T08:48:42.150Z,11.40
2022-11-12T08:51:11.627Z,11.40
2022-11-12T08:53:39.740Z,11.40
2022-11-12T08:56:08.225Z,11.40
2022-11-12T08:58:36.363Z,11.50
2022-11-12T09:01:08.958Z,11.50
2022-11-12T09:03:37.477Z,11.50
2022-11-12T09:06:06.743Z,11.50
2022-11-12T09:08:38.050Z,11.50
2022-11-12T09:11:06.794Z,11.50
2022-11-12T09:13:35.242Z,11.60
2022-11-12T09:16:05.173Z,11.60
2022-11-12T09:18:34.592Z,11.60
2022-11-12T09:21:04.969Z,11.70
2022-11-12T09:23:34.777Z,11.70
2022-11-12T09:26:04.827Z,11.70
2022-11-12T09:28:33.022Z,11.70
2022-11-12T09:31:01.226Z,11.80
2022-11-12T09:33:32.571Z,11.80
2022-11-12T09:36:02.777Z,11.80
2022-11-12T09:38:31.263Z,11.80
2022-11-12T09:41:21.477Z,11.90
2022-11-12T09:43:52.697Z,11.80
2022-11-12T09:46:36.066Z,11.80
2022-11-12T09:49:08.924Z,11.90
2022-11-12T09:51:41.883Z,11.90
2022-11-12T09:54:20.177Z,11.90
2022-11-12T09:56:50.501Z,11.90
2022-11-12T09:59:19.187Z,11.90
2022-11-12T10:02:19.521Z,12.00
2022-11-12T10:05:22.294Z,12.00
2022-11-12T10:08:03.657Z,12.00
2022-11-12T10:10:44.861Z,12.10
2022-11-12T10:13:30.105Z,12.00
2022-11-12T10:16:31.096Z,12.10
2022-11-12T10:19:30.772Z,12.10
2022-11-12T10:22:13.045Z,12.10
2022-11-12T10:24:42.942Z,12.20
2022-11-12T10:27:17.373Z,12.20
2022-11-12T10:29:54.706Z,12.20
2022-11-12T10:32:22.801Z,12.20
2022-11-12T10:34:50.904Z,12.20
2022-11-12T10:37:23.648Z,12.20
2022-11-12T10:39:51.837Z,12.20
2022-11-12T10:42:22.116Z,12.30
2022-11-12T10:44:51.956Z,12.30
2022-11-12T10:47:27.988Z,12.30
2022-11-12T10:50:19.309Z,12.30
2022-11-12T10:52:58.892Z,12.30
2022-11-12T10:55:29.942Z,12.20
2022-11-12T10:58:16.588Z,12.20
2022-11-12T11:01:05.147Z,12.20
2022-11-12T11:03:35.733Z,12.30
2022-11-12T11:06:06.385Z,12.30
2022-11-12T11:08:37.580Z,12.30
2022-11-12T11:11:20.195Z,12.30
2022-11-12T11:13:54.334Z,12.30
2022-11-12T11:16:27.180Z,12.30
2022-11-12T11:18:58.947Z,12.30
2022-11-12T11:21:59.239Z,12.30
2022-11-12T11:24:40.419Z,12.40
2022-11-12T11:27:20.856Z,12.40
2022-11-12T11:30:02.478Z,12.40
2022-11-12T11:32:48.803Z,12.40
2022-11-12T11:35:26.307Z,12.40
2022-11-12T11:38:15.766Z,12.50
2022-11-12T11:40:52.775Z,12.50
2022-11-12T11:43:43.876Z,12.50
2022-11-12T11:46:23.726Z,12.50
2022-11-12T11:49:04.431Z,12.60
2022-11-12T11:51:41.602Z,12.60
2022-11-12T11:54:28.171Z,12.60
2022-11-12T11:57:01.228Z,12.60
2022-11-12T11:59:42.911Z,12.60
2022-11-12T12:02:47.682Z,12.70
2022-11-12T12:05:30.602Z,12.70
2022-11-12T12:08:06.056Z,12.70
2022-11-12T12:11:06.903Z,12.80
2022-11-12T12:13:43.101Z,12.70
2022-11-12T12:16:25.555Z,12.80
2022-11-12T12:18:59.994Z,12.80
2022-11-12T12:21:33.058Z,12.80
2022-11-12T12:24:04.688Z,12.80
2022-11-12T12:26:41.651Z,12.80
2022-11-12T12:29:16.234Z,12.80
2022-11-12T12:31:50.129Z,12.90
2022-11-12T12:34:25.009Z,12.90
2022-11-12T12:37:03.126Z,12.90
2022-11-12T12:39:45.023Z,12.90
2022-11-12T12:42:21.489Z,12.90
2022-11-12T12:45:01.303Z,12.90
2022-11-12T12:47:31.762Z,12.90
2022-11-12T12:50:01.838Z,12.90
2022-11-12T12:52:31.316Z,12.90
2022-11-12T12:54:59.881Z,12.90
2022-11-12T12:57:33.244Z,12.80
2022-11-12T13:00:27.506Z,12.90
2022-11-12T13:02:55.775Z,12.90
2022-11-12T13:05:27.141Z,12.80
2022-11-12T13:08:00.015Z,12.90
2022-11-12T13:10:56.148Z,12.80
2022-11-12T13:13:33.114Z,12.80
2022-11-12T13:16:02.610Z,12.80
2022-11-12T13:19:02.170Z,12.80
2022-11-12T13:21:31.209Z,12.80
2022-11-12T13:24:11.133Z,12.80
2022-11-12T13:26:57.033Z,12.80
2022-11-12T13:29:47.299Z,12.80
2022-11-12T13:32:36.418Z,12.70
2022-11-12T13:35:30.352Z,12.70
2022-11-12T13:38:01.812Z,12.70
2022-11-12T13:40:43.376Z,12.70
2022-11-12T13:43:18.921Z,12.70
2022-11-12T13:45:51.422Z,12.70
2022-11-12T13:48:25.714Z,12.70
2022-11-12T13:50:58.278Z,12.70
2022-11-12T13:53:28.564Z,12.70
2022-11-12T13:55:58.516Z,12.70
2022-11-12T13:58:31.498Z,12.60
2022-11-12T14:01:01.500Z,12.60
2022-11-12T14:03:33.872Z,12.60
2022-11-12T14:06:08.017Z,12.60
2022-11-12T14:08:56.875Z,12.60
2022-11-12T14:11:45.484Z,12.60
2022-11-12T14:14:24.821Z,12.60
2022-11-12T14:17:12.700Z,12.60
2022-11-12T14:20:12.385Z,12.50
2022-11-12T14:22:42.754Z,12.50
2022-11-12T14:25:18.885Z,12.50
2022-11-12T14:27:49.344Z,12.50
2022-11-12T14:30:20.926Z,12.40
2022-11-12T14:32:51.016Z,12.40
2022-11-12T14:35:34.946Z,12.50
2022-11-12T14:38:16.605Z,12.40
2022-11-12T14:40:47.753Z,12.50
2022-11-12T14:43:27.891Z,12.40
2022-11-12T14:45:58.277Z,12.40
2022-11-12T14:48:26.781Z,12.40
2022-11-12T14:51:00.929Z,12.40
2022-11-12T14:53:33.748Z,12.40
2022-11-12T14:56:04.489Z,12.40
2022-11-12T14:58:34.952Z,12.40
2022-11-12T15:01:47.793Z,12.40
2022-11-12T15:04:19.913Z,12.40
2022-11-12T15:06:53.685Z,12.40
2022-11-12T15:09:34.650Z,12.30
2022-11-12T15:12:04.280Z,12.40
2022-11-12T15:14:34.571Z,12.30
2022-11-12T15:17:05.576Z,12.40
2022-11-12T15:19:34.289Z,12.30
2022-11-12T15:22:04.911Z,12.30
2022-11-12T15:24:34.621Z,12.30
2022-11-12T15:27:04.089Z,12.30
2022-11-12T15:29:36.101Z,12.30
2022-11-12T15:32:25.348Z,12.30
2022-11-12T15:34:53.684Z,12.30
2022-11-12T15:37:26.651Z,12.30
2022-11-12T15:39:57.813Z,12.20
2022-11-12T15:42:29.911Z,12.20
2022-11-12T15:45:02.091Z,12.20
2022-11-12T15:47:30.495Z,12.30
2022-11-12T15:50:00.013Z,12.30
2022-11-12T15:52:28.519Z,12.20
2022-11-12T15:54:56.655Z,12.20
2022-11-12T15:57:28.175Z,12.20
2022-11-12T16:00:07.513Z,12.20
2022-11-12T16:02:36.502Z,12.20
2022-11-12T16:05:04.647Z,12.20
2022-11-12T16:07:32.762Z,12.20
2022-11-12T16:10:00.948Z,12.20
2022-11-12T16:12:29.278Z,12.20
2022-11-12T16:14:59.470Z,12.20
2022-11-12T16:17:28.975Z,12.20
2022-11-12T16:19:57.104Z,12.10
2022-11-12T16:22:25.390Z,12.10
2022-11-12T16:24:54.611Z,12.10
2022-11-12T16:27:23.282Z,12.10
2022-11-12T16:29:51.443Z,12.20
2022-11-12T16:32:19.554Z,12.10
2022-11-12T16:34:49.034Z,12.10
2022-11-12T16:37:17.250Z,12.20
2022-11-12T16:39:45.353Z,12.10
2022-11-12T16:42:13.558Z,12.20
2022-11-12T16:44:41.663Z,12.10
2022-11-12T16:47:12.789Z,12.10
2022-11-12T16:49:42.852Z,12.00
2022-11-12T16:52:12.676Z,12.00
2022-11-12T16:54:40.850Z,12.10
2022-11-12T16:57:11.449Z,12.10
2022-11-12T16:59:39.551Z,12.10
2022-11-12T17:02:15.222Z,12.10
2022-11-12T17:04:43.339Z,12.10
2022-11-12T17:07:12.870Z,12.10
2022-11-12T17:09:41.097Z,12.10
2022-11-12T17:12:09.769Z,12.10
2022-11-12T17:14:38.097Z,12.10
2022-11-12T17:17:06.205Z,12.00
2022-11-12T17:19:34.341Z,12.00
2022-11-12T17:22:02.443Z,12.00
2022-11-12T17:24:32.120Z,12.00
2022-11-12T17:27:01.078Z,12.00
2022-11-12T17:29:29.561Z,12.00
2022-11-12T17:31:57.658Z,12.00
2022-11-12T17:34:25.937Z,12.00
2022-11-12T17:36:54.197Z,12.00
2022-11-12T17:39:22.321Z,12.00
2022-11-12T17:41:51.821Z,12.00
2022-11-12T17:44:20.973Z,12.00
2022-11-12T17:46:49.153Z,12.00
2022-11-12T17:49:17.539Z,12.00
2022-11-12T17:51:45.665Z,12.00
2022-11-12T17:54:13.789Z,12.00
2022-11-12T17:56:41.932Z,12.00
2022-11-12T17:59:11.738Z,11.90
2022-11-12T18:01:39.917Z,11.80
2022-11-12T18:04:10.933Z,11.90
2022-11-12T18:06:39.112Z,11.90
2022-11-12T18:09:09.863Z,11.90
2022-11-12T18:11:43.867Z,11.90
2022-11-12T18:14:13.401Z,11.90
2022-11-12T18:16:41.767Z,11.90
2022-11-12T18:19:11.156Z,11.90
2022-11-12T18:21:40.904Z,11.90
2022-11-12T18:24:13.657Z,11.90
2022-11-12T18:26:41.786Z,11.90
2022-11-12T18:29:10.040Z,11.90
2022-11-12T18:31:40.559Z,12.00
2022-11-12T18:34:11.316Z,12.00
2022-11-12T18:36:39.429Z,12.00
2022-11-12T18:39:07.674Z,12.00
2022-11-12T18:41:35.819Z,12.00
2022-11-12T18:44:03.948Z,12.00
2022-11-12T18:46:32.055Z,12.00
2022-11-12T18:49:01.540Z,12.00
2022-11-12T18:51:29.768Z,12.00
2022-11-12T18:53:57.950Z,12.00
2022-11-12T18:56:26.071Z,12.00
2022-11-12T18:58:54.255Z,12.00
2022-11-12T19:01:24.614Z,12.00
2022-11-12T19:03:55.529Z,12.00
2022-11-12T19:06:25.732Z,11.90
2022-11-12T19:09:00.584Z,11.90
2022-11-12T19:11:29.055Z,11.90
2022-11-12T19:13:57.346Z,11.90
2022-11-12T19:16:25.697Z,11.90
2022-11-12T19:18:53.929Z,11.90
2022-11-12T19:21:25.779Z,11.90
2022-11-12T19:23:54.922Z,11.90
2022-11-12T19:26:24.735Z,11.80
2022-11-12T19:28:52.975Z,11.80
2022-11-12T19:31:23.068Z,11.80
2022-11-12T19:33:51.944Z,11.80
2022-11-12T19:36:22.673Z,11.80
2022-11-12T19:38:56.800Z,11.80
2022-11-12T19:41:25.418Z,11.80
2022-11-12T19:43:53.964Z,11.80
2022-11-12T19:46:22.401Z,11.80
2022-11-12T19:48:51.188Z,11.80
2022-11-12T19:51:19.351Z,11.80
2022-11-12T19:53:47.465Z,11.80
2022-11-12T19:56:18.837Z,11.80
2022-11-12T19:58:48.173Z,11.80
2022-11-12T20:01:17.990Z,11.70
2022-11-12T20:03:46.358Z,11.70
2022-11-12T20:06:16.250Z,11.70
2022-11-12T20:08:44.484Z,11.70
2022-11-12T20:11:12.955Z,11.70
2022-11-12T20:13:42.579Z,11.70
2022-11-12T20:16:13.601Z,11.70
2022-11-12T20:18:41.742Z,11.70
2022-11-12T20:21:10.761Z,11.70
2022-11-12T20:23:42.795Z,11.70
2022-11-12T20:26:12.862Z,11.70
2022-11-12T20:28:43.876Z,11.60
2022-11-12T20:31:13.493Z,11.60
2022-11-12T20:33:42.760Z,11.60
2022-11-12T20:36:12.609Z,11.60
2022-11-12T20:38:41.993Z,11.70
2022-11-12T20:41:15.161Z,11.70
2022-11-12T20:43:44.781Z,11.70
2022-11-12T20:46:13.257Z,11.70
2022-11-12T20:48:43.744Z,11.70
2022-11-12T20:51:28.952Z,11.60
2022-11-12T20:54:00.441Z,11.70
2022-11-12T20:56:30.981Z,11.60
2022-11-12T20:59:00.782Z,11.60
2022-11-12T21:01:30.275Z,11.60
2022-11-12T21:03:59.259Z,11.60
2022-11-12T21:06:29.545Z,11.70
2022-11-12T21:08:59.834Z,11.70
2022-11-12T21:11:28.118Z,11.70
2022-11-12T21:13:56.259Z,11.70
2022-11-12T21:16:25.776Z,11.70
2022-11-12T21:18:53.888Z,11.70
2022-11-12T21:21:22.165Z,11.70
2022-11-12T21:23:51.195Z,11.70
2022-11-12T21:26:20.475Z,11.70
2022-11-12T21:28:50.416Z,11.70
2022-11-12T21:31:20.188Z,11.70
2022-11-12T21:33:51.916Z,11.60
2022-11-12T21:36:21.282Z,11.60
2022-11-12T21:38:49.646Z,11.60
2022-11-12T21:41:20.095Z,11.60
2022-11-12T21:43:49.179Z,11.50
2022-11-12T21:46:19.071Z,11.60
2022-11-12T21:48:52.208Z,11.50
2022-11-12T21:51:24.788Z,11.60
2022-11-12T21:53:55.736Z,11.60
2022-11-12T21:56:24.372Z,11.60
2022-11-12T21:58:53.532Z,11.60
2022-11-12T22:01:24.994Z,11.60
2022-11-12T22:03:54.798Z,11.60
2022-11-12T22:06:27.653Z,11.60
2022-11-12T22:08:56.819Z,11.60
2022-11-12T22:11:28.080Z,11.60
2022-11-12T22:13:56.264Z,11.70
2022-11-12T22:16:26.377Z,11.70
2022-11-12T22:18:56.716Z,11.60
2022-11-12T22:21:27.704Z,11.60
2022-11-12T22:23:56.848Z,11.50
2022-11-12T22:26:26.724Z,11.50
2022-11-12T22:28:55.246Z,11.50
2022-11-12T22:31:26.993Z,11.60
2022-11-12T22:33:55.895Z,11.60
2022-11-12T22:36:28.647Z,11.60
2022-11-12T22:38:57.111Z,11.60
2022-11-12T22:41:27.335Z,11.60
2022-11-12T22:43:56.695Z,11.60
2022-11-12T22:46:27.037Z,11.60
2022-11-12T22:48:55.853Z,11.60
2022-11-12T22:51:27.695Z,11.50
2022-11-12T22:53:57.846Z,11.60
2022-11-12T22:56:27.488Z,11.60
2022-11-12T22:58:56.418Z,11.50
2022-11-12T23:01:27.016Z,11.60
2022-11-12T23:03:57.367Z,11.50
2022-11-12T23:06:28.007Z,11.50
2022-11-12T23:08:57.566Z,11.50
2022-11-12T23:11:26.372Z,11.50
2022-11-12T23:13:55.726Z,11.60
2022-11-12T23:16:25.545Z,11.50
2022-11-12T23:18:55.033Z,11.60
2022-11-12T23:21:25.014Z,11.50
2022-11-12T23:23:54.723Z,11.50
2022-11-12T23:26:24.281Z,11.50
2022-11-12T23:28:52.689Z,11.50
2022-11-12T23:31:22.534Z,11.50
2022-11-12T23:33:52.365Z,11.50
2022-11-12T23:36:21.366Z,11.50
2022-11-12T23:38:49.721Z,11.50
2022-11-12T23:41:22.738Z,11.50
2022-11-12T23:43:51.073Z,11.50
2022-11-12T23:46:19.414Z,11.40
2022-11-12T23:48:47.810Z,11.40
2022-11-12T23:51:17.408Z,11.40
2022-11-12T23:53:45.815Z,11.40
2022-11-12T23:56:15.992Z,11.40
2022-11-12T23:58:45.488Z,11.40
